Time;durP1;ratioP1;P1;durP2;ratioP2;P2;SDS_P1;SDS_P2;PMS_P1;PMS_P2;Temp;Humidity;BMP_temperature;BMP_pressure;BME280_temperature;BME280_humidity;BME280_pressure;Samples;Min_cycle;Max_cycle;Signal;HPM_P1;HPM_P2
2022/04/13 00:02:20;;;;;;;6.07;2.93;;;;;;;12.40;100.00;99889.88;4942674;28;20632;-58
2022/04/13 00:04:45;;;;;;;4.53;2.57;;;;;;;12.37;100.00;99905.53;4946289;28;20281;-57
2022/04/13 00:07:11;;;;;;;6.23;3.03;;;;;;;12.34;100.00;99914.22;4947176;29;20526;-57
2022/04/13 00:09:36;;;;;;;4.53;2.87;;;;;;;12.30;100.00;99912.59;4947124;28;20241;-57
2022/04/13 00:12:03;;;;;;;4.13;2.87;;;;;;;12.26;100.00;99916.97;4951265;28;20213;-57
2022/04/13 00:14:29;;;;;;;5.20;3.33;;;;;;;12.22;100.00;99914.47;4949517;28;20188;-56
2022/04/13 00:16:55;;;;;;;4.40;2.80;;;;;;;12.19;100.00;99930.97;4944968;28;20243;-56
2022/04/13 00:19:21;;;;;;;3.40;2.80;;;;;;;12.15;100.00;99922.41;4945051;28;20191;-58
2022/04/13 00:21:47;;;;;;;3.63;2.70;;;;;;;12.14;100.00;99922.44;4950042;28;20207;-57
2022/04/13 00:24:13;;;;;;;4.33;2.57;;;;;;;12.12;100.00;99919.00;4950705;28;20244;-57
2022/04/13 00:26:39;;;;;;;4.03;2.83;;;;;;;12.11;100.00;99919.91;4947621;28;20953;-57
2022/04/13 00:29:04;;;;;;;4.70;3.37;;;;;;;12.11;100.00;99927.69;4945171;29;20190;-57
2022/04/13 00:31:30;;;;;;;3.13;2.60;;;;;;;12.11;100.00;99930.28;4944945;28;20243;-57
2022/04/13 00:33:55;;;;;;;3.60;2.80;;;;;;;12.12;100.00;99926.78;4944485;28;20659;-57
2022/04/13 00:36:20;;;;;;;5.50;3.20;;;;;;;12.13;100.00;99926.78;4944857;28;20609;-57
2022/04/13 00:38:46;;;;;;;4.57;2.97;;;;;;;12.16;100.00;99918.06;4947212;28;20187;-56
2022/04/13 00:41:12;;;;;;;5.87;3.40;;;;;;;12.14;100.00;99918.13;4946790;28;20190;-58
2022/04/13 00:43:38;;;;;;;9.17;3.63;;;;;;;12.13;100.00;99926.78;4946541;28;20700;-57
2022/04/13 00:46:03;;;;;;;8.47;3.60;;;;;;;12.11;100.00;99922.50;4951702;28;20223;-57
2022/04/13 00:48:36;;;;;;;4.80;2.80;;;;;;;12.08;100.00;99926.00;4945894;28;20222;-58
2022/04/13 00:51:02;;;;;;;6.03;3.40;;;;;;;12.08;100.00;99927.75;4950114;28;20192;-58
2022/04/13 00:53:30;;;;;;;10.37;3.77;;;;;;;12.05;100.00;99928.66;4941523;28;20210;-57
2022/04/13 00:55:57;;;;;;;10.17;3.53;;;;;;;12.02;100.00;99933.94;4954663;28;20277;-57
2022/04/13 00:58:28;;;;;;;9.30;3.87;;;;;;;11.98;100.00;99938.31;4942693;28;20193;-57
2022/04/13 01:00:55;;;;;;;10.63;3.33;;;;;;;11.96;100.00;99937.44;4942052;28;20192;-58
2022/04/13 01:03:27;;;;;;;7.97;3.40;;;;;;;11.95;100.00;99940.09;4945164;28;20238;-57
2022/04/13 01:05:53;;;;;;;12.80;3.73;;;;;;;11.96;100.00;99940.03;4945196;28;20202;-57
2022/04/13 01:08:20;;;;;;;10.73;4.13;;;;;;;11.94;100.00;99938.38;4947305;28;20191;-57
2022/04/13 01:10:47;;;;;;;11.27;3.70;;;;;;;11.94;100.00;99947.03;4948051;28;20191;-56
2022/04/13 01:13:14;;;;;;;15.13;4.33;;;;;;;11.91;100.00;99944.50;4947897;28;20207;-57
2022/04/13 01:15:40;;;;;;;13.77;3.50;;;;;;;11.90;100.00;99948.81;4948617;28;20330;-58
2022/04/13 01:18:06;;;;;;;15.17;4.67;;;;;;;11.93;100.00;99947.03;4950873;28;20283;-57
2022/04/13 01:20:31;;;;;;;14.33;3.63;;;;;;;11.94;100.00;99956.53;4955407;28;20206;-58
2022/04/13 01:22:57;;;;;;;13.00;4.03;;;;;;;11.95;100.00;99951.31;4951972;28;20231;-58
2022/04/13 01:25:22;;;;;;;12.97;3.80;;;;;;;11.97;100.00;99957.31;4951450;28;20232;-57
2022/04/13 01:27:48;;;;;;;9.33;4.00;;;;;;;11.99;100.00;99960.78;4950624;28;20201;-57
2022/04/13 01:30:14;;;;;;;15.13;4.43;;;;;;;12.02;100.00;99960.72;4952361;28;20198;-56
2022/04/13 01:32:40;;;;;;;16.07;4.10;;;;;;;12.03;100.00;99954.66;4947834;28;20282;-58
2022/04/13 01:35:06;;;;;;;12.87;4.70;;;;;;;12.04;100.00;99961.53;4950128;28;20980;-57
2022/04/13 01:37:32;;;;;;;9.43;3.80;;;;;;;12.08;100.00;99961.47;4949972;28;20191;-57
2022/04/13 01:39:58;;;;;;;11.17;3.93;;;;;;;12.11;100.00;99958.81;4955052;28;20262;-58
2022/04/13 01:42:24;;;;;;;7.93;3.80;;;;;;;12.13;100.00;99963.09;4949293;28;20804;-56
2022/04/13 01:44:49;;;;;;;8.47;4.00;;;;;;;12.15;100.00;99958.72;4947394;28;20195;-58
2022/04/13 01:47:15;;;;;;;7.23;3.10;;;;;;;12.17;100.00;99964.75;4946759;28;20235;-57
2022/04/13 01:49:41;;;;;;;7.07;2.70;;;;;;;12.21;100.00;99957.75;4951515;28;20273;-57
2022/04/13 01:52:07;;;;;;;6.53;3.17;;;;;;;12.20;100.00;99964.66;4952245;28;20198;-58
2022/04/13 01:54:33;;;;;;;5.13;2.90;;;;;;;12.17;100.00;99961.28;4953308;28;20302;-57
2022/04/13 01:56:59;;;;;;;5.80;3.27;;;;;;;12.14;100.00;99967.41;4947355;28;20243;-57
2022/04/13 01:59:24;;;;;;;7.03;3.50;;;;;;;12.14;100.00;99963.94;4948157;28;20206;-57
2022/04/13 02:01:50;;;;;;;9.10;3.40;;;;;;;12.14;100.00;99967.41;4946128;28;20224;-57
2022/04/13 02:04:16;;;;;;;5.07;3.00;;;;;;;12.16;100.00;99968.22;4947705;29;20222;-57
2022/04/13 02:06:42;;;;;;;5.70;2.90;;;;;;;12.18;100.00;99974.22;4953885;28;21016;-56
2022/04/13 02:09:07;;;;;;;6.30;3.30;;;;;;;12.19;100.00;99973.31;4956036;28;20195;-59
2022/04/13 02:11:32;;;;;;;4.87;2.87;;;;;;;12.19;100.00;99973.31;4948740;28;20266;-56
2022/04/13 02:13:58;;;;;;;4.83;3.17;;;;;;;12.19;100.00;99973.31;4947177;28;21013;-57
2022/04/13 02:16:23;;;;;;;8.10;2.70;;;;;;;12.17;100.00;99971.66;4947952;28;20196;-57
2022/04/13 02:18:48;;;;;;;7.03;2.70;;;;;;;12.14;100.00;99982.09;4950437;28;20592;-59
2022/04/13 02:21:14;;;;;;;3.73;2.93;;;;;;;12.12;100.00;99966.56;4949133;28;20252;-57
2022/04/13 02:23:39;;;;;;;7.77;3.20;;;;;;;12.09;100.00;99966.63;4948065;28;20230;-57
2022/04/13 02:26:05;;;;;;;8.30;3.53;;;;;;;12.05;100.00;99975.34;4953921;28;20210;-58
2022/04/13 02:28:30;;;;;;;7.47;3.00;;;;;;;12.00;100.00;99974.59;4945131;28;20205;-57
2022/04/13 02:30:55;;;;;;;4.03;2.77;;;;;;;11.95;100.00;99961.66;4947761;28;20270;-57
2022/04/13 02:33:21;;;;;;;9.37;3.30;;;;;;;11.92;100.00;99961.75;4941748;28;20270;-57
2022/04/13 02:35:46;;;;;;;6.83;3.70;;;;;;;11.90;100.00;99960.94;4940816;28;20274;-56
2022/04/13 02:38:12;;;;;;;8.63;3.13;;;;;;;11.85;100.00;99960.16;4947889;28;20192;-56
2022/04/13 02:40:37;;;;;;;5.50;3.20;;;;;;;11.80;100.00;99962.00;4949653;28;20190;-57
2022/04/13 02:43:02;;;;;;;5.97;3.50;;;;;;;11.78;100.00;99958.59;4944049;28;20758;-57
2022/04/13 02:45:28;;;;;;;4.67;3.27;;;;;;;11.74;100.00;99957.75;4947831;28;21069;-57
2022/04/13 02:47:53;;;;;;;4.80;3.13;;;;;;;11.71;100.00;99956.09;4948355;28;20192;-57
2022/04/13 02:50:19;;;;;;;4.27;3.20;;;;;;;11.70;100.00;99956.13;4953797;28;20202;-57
2022/04/13 02:52:44;;;;;;;6.53;3.10;;;;;;;11.69;100.00;99959.63;4947157;28;20578;-57
2022/04/13 02:55:11;;;;;;;3.40;2.73;;;;;;;11.67;100.00;99959.63;4948338;28;20195;-57
2022/04/13 02:57:37;;;;;;;5.73;3.20;;;;;;;11.64;100.00;99964.88;4951102;28;20239;-57
2022/04/13 03:00:03;;;;;;;7.80;3.70;;;;;;;11.61;100.00;99966.66;4946098;28;20650;-56
2022/04/13 03:02:29;;;;;;;5.47;3.70;;;;;;;11.54;100.00;99958.13;4959544;28;20225;-57
2022/04/13 03:04:54;;;;;;;9.93;3.40;;;;;;;11.49;100.00;99959.97;4948462;28;20254;-57
2022/04/13 03:07:22;;;;;;;5.67;3.47;;;;;;;11.43;100.00;99960.91;4947588;28;20230;-57
2022/04/13 03:09:48;;;;;;;7.93;3.30;;;;;;;11.36;100.00;99961.94;4950554;28;20246;-57
2022/04/13 03:12:13;;;;;;;6.77;3.57;;;;;;;11.31;100.00;99972.38;4950203;28;20255;-56
2022/04/13 03:14:43;;;;;;;5.37;3.20;;;;;;;11.23;100.00;99967.31;4951419;28;20318;-56
2022/04/13 03:17:08;;;;;;;4.07;3.10;;;;;;;11.17;100.00;99964.81;4947907;28;20202;-57
2022/04/13 03:19:34;;;;;;;4.57;3.30;;;;;;;11.13;100.00;99968.34;4948659;28;20194;-57
2022/04/13 03:21:59;;;;;;;11.70;3.43;;;;;;;11.08;100.00;99971.00;4945832;28;20229;-56
2022/04/13 03:24:25;;;;;;;4.50;2.97;;;;;;;11.04;100.00;99968.50;4949078;28;20644;-57
2022/04/13 03:26:52;;;;;;;5.27;3.40;;;;;;;10.96;100.00;99969.50;4945700;28;20330;-56
2022/04/13 03:29:18;;;;;;;6.53;3.00;;;;;;;10.90;100.00;99969.56;4952854;28;20198;-58
2022/04/13 03:31:44;;;;;;;4.93;3.43;;;;;;;10.85;100.00;99968.78;4944863;28;20742;-60
2022/04/13 03:34:10;;;;;;;4.50;3.23;;;;;;;10.80;100.00;99976.63;4947487;28;20200;-58
2022/04/13 03:36:39;;;;;;;3.83;3.20;;;;;;;10.75;100.00;99977.56;4951719;28;20190;-57
2022/04/13 03:39:06;;;;;;;6.77;3.70;;;;;;;10.71;100.00;99974.19;4943869;28;20245;-57
2022/04/13 03:41:33;;;;;;;10.40;3.40;;;;;;;10.66;100.00;99973.38;4947082;28;20230;-57
2022/04/13 03:43:58;;;;;;;5.93;3.10;;;;;;;10.62;100.00;99975.16;4948705;28;20195;-57
2022/04/13 03:46:23;;;;;;;4.63;3.33;;;;;;;10.57;100.00;99979.53;4942124;28;20205;-58
2022/04/13 03:48:49;;;;;;;6.97;3.40;;;;;;;10.54;100.00;99978.72;4940655;28;20286;-57
2022/04/13 03:51:14;;;;;;;5.93;3.60;;;;;;;10.50;100.00;99978.75;4944015;28;20206;-57
2022/04/13 03:53:40;;;;;;;6.63;3.60;;;;;;;10.47;100.00;99983.13;4943877;28;20262;-56
2022/04/13 03:56:05;;;;;;;6.73;3.40;;;;;;;10.45;100.00;99988.31;4944366;28;20294;-57
2022/04/13 03:58:32;;;;;;;4.27;3.27;;;;;;;10.45;100.00;99980.53;4947369;28;20188;-56
2022/04/13 04:00:57;;;;;;;4.87;3.50;;;;;;;10.44;100.00;99986.59;4948304;28;20210;-57
2022/04/13 04:03:26;;;;;;;6.67;3.57;;;;;;;10.42;100.00;99980.63;4944796;28;20687;-56
2022/04/13 04:05:53;;;;;;;3.27;2.97;;;;;;;10.40;100.00;99977.19;4948489;28;20194;-56
2022/04/13 04:08:19;;;;;;;6.40;3.50;;;;;;;10.41;100.00;99984.06;4945083;28;20229;-57
2022/04/13 04:10:44;;;;;;;3.50;3.20;;;;;;;10.40;100.00;99973.72;4945095;28;20719;-57
2022/04/13 04:13:09;;;;;;;4.40;3.20;;;;;;;10.40;100.00;99978.91;4949205;28;20803;-59
2022/04/13 04:15:35;;;;;;;6.23;3.53;;;;;;;10.36;100.00;99978.06;4951726;28;20197;-57
2022/04/13 04:18:01;;;;;;;5.37;3.57;;;;;;;10.31;100.00;99972.09;4943511;28;20660;-56
2022/04/13 04:20:27;;;;;;;5.80;3.33;;;;;;;10.28;100.00;99977.31;4944594;28;20529;-57
2022/04/13 04:22:52;;;;;;;5.33;3.37;;;;;;;10.23;100.00;99977.34;4942144;28;20227;-56
2022/04/13 04:25:17;;;;;;;3.53;2.90;;;;;;;10.20;100.00;99980.00;4944451;28;20285;-56
2022/04/13 04:27:43;;;;;;;3.50;3.10;;;;;;;10.16;100.00;99978.31;4945582;28;20187;-56
2022/04/13 04:30:09;;;;;;;3.90;3.00;;;;;;;10.15;100.00;99984.38;4944097;28;20196;-55
2022/04/13 04:32:34;;;;;;;6.03;3.17;;;;;;;10.13;100.00;99989.56;4944430;28;22714;-57
2022/04/13 04:35:00;;;;;;;4.27;3.17;;;;;;;10.10;100.00;99993.91;4939088;28;20253;-56
2022/04/13 04:37:25;;;;;;;5.73;3.10;;;;;;;10.05;100.00;99991.38;4948298;28;20665;-57
2022/04/13 04:39:51;;;;;;;4.17;3.10;;;;;;;10.02;100.00;99996.56;4944551;28;20185;-57
2022/04/13 04:42:16;;;;;;;6.23;3.23;;;;;;;10.00;100.00;99993.13;4943557;28;20268;-57
2022/04/13 04:44:42;;;;;;;3.10;2.80;;;;;;;9.99;100.00;100000.06;4944465;28;20187;-56
2022/04/13 04:47:07;;;;;;;5.23;3.30;;;;;;;9.99;100.00;99988.84;4943070;28;20874;-55
2022/04/13 04:49:33;;;;;;;5.50;3.47;;;;;;;10.01;100.00;99993.13;4942336;28;20325;-56
2022/04/13 04:51:58;;;;;;;5.60;3.40;;;;;;;10.05;100.00;99991.38;4945930;28;20470;-56
2022/04/13 04:54:23;;;;;;;8.13;3.77;;;;;;;10.08;100.00;99988.75;4948049;28;20194;-57
2022/04/13 04:56:49;;;;;;;3.73;3.33;;;;;;;10.12;100.00;99990.44;4947231;28;20194;-57
2022/04/13 04:59:15;;;;;;;4.87;3.37;;;;;;;10.19;100.00;99994.66;4945815;28;20281;-56
2022/04/13 05:01:41;;;;;;;5.67;3.70;;;;;;;10.25;100.00;99998.88;4947047;28;20221;-57
2022/04/13 05:04:07;;;;;;;5.73;3.90;;;;;;;10.33;100.00;99993.63;4949211;28;20244;-57
2022/04/13 05:06:32;;;;;;;4.00;3.47;;;;;;;10.42;100.00;100006.47;4952579;28;20196;-57
2022/04/13 05:08:58;;;;;;;5.00;3.40;;;;;;;10.51;100.00;100001.19;4946657;28;20198;-57
2022/04/13 05:11:23;;;;;;;4.00;3.23;;;;;;;10.62;100.00;99998.44;4946970;28;20225;-57
2022/04/13 05:13:50;;;;;;;4.73;3.20;;;;;;;10.73;100.00;99997.44;4953410;28;20225;-57
2022/04/13 05:16:17;;;;;;;4.30;3.17;;;;;;;10.84;100.00;99995.53;4954249;28;20199;-57
2022/04/13 05:18:47;;;;;;;5.83;3.30;;;;;;;10.97;100.00;100001.41;4947231;28;20594;-57
2022/04/13 05:21:13;;;;;;;5.77;3.30;;;;;;;11.10;100.00;100000.31;4952408;28;20281;-58
2022/04/13 05:23:41;;;;;;;6.53;3.23;;;;;;;11.19;100.00;100001.91;4952187;28;20214;-57
2022/04/13 05:26:06;;;;;;;5.13;3.33;;;;;;;11.32;100.00;100006.88;4950297;29;20183;-57
2022/04/13 05:28:32;;;;;;;5.53;3.43;;;;;;;11.44;100.00;100006.69;4951776;28;20727;-56
2022/04/13 05:30:58;;;;;;;4.83;3.30;;;;;;;11.56;100.00;100006.50;4951996;29;20274;-57
2022/04/13 05:33:23;;;;;;;4.07;3.40;;;;;;;11.71;100.00;100004.50;4950407;28;20914;-56
2022/04/13 05:35:49;;;;;;;6.13;3.50;;;;;;;11.85;100.00;100001.63;4949888;28;20202;-57
2022/04/13 05:38:15;;;;;;;38.43;7.27;;;;;;;11.94;100.00;100001.50;4948647;28;20254;-56
2022/04/13 05:40:40;;;;;;;18.47;5.00;;;;;;;12.00;100.00;100005.72;4946140;28;20576;-56
2022/04/13 05:43:06;;;;;;;6.33;3.83;;;;;;;12.14;100.00;100014.09;4943144;28;21029;-56
2022/04/13 05:45:31;;;;;;;6.10;4.37;;;;;;;12.34;100.00;100012.81;4948645;28;20194;-57
2022/04/13 05:47:57;;;;;;;8.17;4.30;;;;;;;12.60;100.00;100019.22;4949999;28;20210;-57
2022/04/13 05:50:23;;;;;;;5.93;3.50;;;;;;;12.87;100.00;100011.69;4943331;28;20282;-58
2022/04/13 05:52:48;;;;;;;6.67;4.00;;;;;;;13.12;100.00;100027.56;4940176;28;20565;-56
2022/04/13 05:55:13;;;;;;;6.33;3.77;;;;;;;13.31;100.00;100014.97;4946966;28;20207;-58
2022/04/13 05:57:39;;;;;;;4.23;3.20;;;;;;;13.53;100.00;100027.47;4946874;28;20182;-57
2022/04/13 06:00:06;;;;;;;4.60;3.33;;;;;;;13.78;100.00;100027.66;4949289;28;20188;-57
2022/04/13 06:02:33;;;;;;;7.67;3.80;;;;;;;14.03;100.00;100027.03;4947317;28;20246;-56
2022/04/13 06:04:59;;;;;;;6.53;3.60;;;;;;;14.27;100.00;100032.44;4946225;29;20279;-56
2022/04/13 06:07:24;;;;;;;6.20;3.40;;;;;;;14.51;100.00;100041.28;4949684;28;20210;-56
2022/04/13 06:09:49;;;;;;;6.47;3.40;;;;;;;14.71;100.00;100037.28;4950405;28;20224;-56
2022/04/13 06:12:22;;;;;;;5.60;3.53;;;;;;;14.95;100.00;100059.13;4950361;28;20317;-57
2022/04/13 06:14:48;;;;;;;5.67;3.07;;;;;;;15.21;100.00;100047.03;4948631;28;20699;-56
2022/04/13 06:17:13;;;;;;;4.57;3.20;;;;;;;15.53;100.00;100045.97;4947213;28;20218;-57
2022/04/13 06:19:38;;;;;;;4.03;3.33;;;;;;;15.81;99.69;100044.19;4949054;28;20270;-59
2022/04/13 06:22:03;;;;;;;6.30;3.47;;;;;;;16.08;98.14;100046.75;4950231;28;20314;-57
2022/04/13 06:24:29;;;;;;;5.63;5.10;;;;;;;16.35;96.21;100049.25;4950035;28;20327;-57
2022/04/13 06:26:54;;;;;;;8.07;5.63;;;;;;;16.57;95.65;100058.00;4946208;28;20198;-56
2022/04/13 06:29:20;;;;;;;7.07;6.00;;;;;;;16.77;94.47;100059.03;4955875;28;20586;-57
2022/04/13 06:31:45;;;;;;;7.27;5.17;;;;;;;16.96;94.08;100060.94;4948429;28;20292;-56
2022/04/13 06:34:10;;;;;;;6.30;5.63;;;;;;;17.11;93.58;100062.94;4943369;28;20190;-56
2022/04/13 06:36:36;;;;;;;12.80;9.60;;;;;;;17.25;92.24;100072.88;4938319;28;20226;-55
2022/04/13 06:39:01;;;;;;;12.23;8.10;;;;;;;17.44;91.34;100074.75;4940265;28;20229;-56
2022/04/13 06:41:27;;;;;;;12.10;8.13;;;;;;;17.64;90.72;100081.75;4945374;28;20203;-56
2022/04/13 06:43:53;;;;;;;7.43;6.40;;;;;;;17.85;90.13;100076.53;4949575;28;20554;-57
2022/04/13 06:46:19;;;;;;;9.00;6.23;;;;;;;17.91;90.24;100079.75;4948233;28;20243;-57
2022/04/13 06:48:44;;;;;;;6.83;5.13;;;;;;;17.98;90.61;100083.81;4946038;28;20320;-56
2022/04/13 06:51:10;;;;;;;6.20;5.00;;;;;;;18.09;90.19;100079.88;4950938;28;20196;-56
2022/04/13 06:53:35;;;;;;;7.73;5.40;;;;;;;18.17;90.20;100088.25;4941902;28;20318;-56
2022/04/13 06:56:00;;;;;;;5.60;4.50;;;;;;;18.27;89.71;100094.78;4947037;28;20192;-57
2022/04/13 06:58:26;;;;;;;7.67;4.73;;;;;;;18.38;88.92;100091.69;4946025;28;20213;-55
2022/04/13 07:00:51;;;;;;;5.77;4.47;;;;;;;18.49;88.69;100093.84;4959853;28;20295;-54
2022/04/13 07:03:17;;;;;;;6.07;4.40;;;;;;;18.62;87.71;100098.53;4955650;28;20550;-56
2022/04/13 07:05:42;;;;;;;3.73;3.37;;;;;;;18.74;87.30;100093.56;4949394;28;20190;-57
2022/04/13 07:08:08;;;;;;;6.17;3.87;;;;;;;18.87;87.00;100093.84;4951755;28;20200;-57
2022/04/13 07:10:34;;;;;;;6.23;3.70;;;;;;;18.99;86.24;100095.06;4946021;28;20193;-57
2022/04/13 07:13:00;;;;;;;6.47;4.07;;;;;;;19.08;84.76;100095.53;4943300;28;20209;-55
2022/04/13 07:15:26;;;;;;;4.60;3.53;;;;;;;19.22;84.41;100100.97;4948450;28;20285;-56
2022/04/13 07:17:51;;;;;;;3.67;3.13;;;;;;;19.39;83.34;100094.94;4947906;28;20233;-57
2022/04/13 07:20:17;;;;;;;5.90;3.33;;;;;;;19.55;82.61;100099.44;4950324;28;20539;-57
2022/04/13 07:22:46;;;;;;;4.97;2.97;;;;;;;19.65;82.22;100104.16;4945978;28;20272;-57
2022/04/13 07:25:12;;;;;;;4.23;3.00;;;;;;;19.74;81.71;100100.19;4950667;28;20195;-57
2022/04/13 07:27:38;;;;;;;4.37;2.77;;;;;;;19.79;80.95;100102.59;4947137;28;20194;-57
2022/04/13 07:30:04;;;;;;;3.70;2.73;;;;;;;19.75;80.44;100109.75;4947520;28;20194;-56
2022/04/13 07:32:29;;;;;;;4.60;2.50;;;;;;;19.74;80.70;100108.06;4949950;28;20206;-57
2022/04/13 07:34:56;;;;;;;4.13;3.03;;;;;;;19.70;80.67;100103.06;4944304;28;20190;-57
2022/04/13 07:37:22;;;;;;;5.77;3.07;;;;;;;19.68;81.00;100110.16;4951259;28;20199;-57
2022/04/13 07:39:47;;;;;;;8.30;3.40;;;;;;;19.74;81.25;100115.94;4942669;28;20199;-56
2022/04/13 07:42:20;;;;;;;5.77;3.07;;;;;;;19.86;81.74;100116.28;4951767;28;20216;-57
2022/04/13 07:44:45;;;;;;;5.63;3.17;;;;;;;20.00;81.39;100124.34;4961332;28;20190;-55
2022/04/13 07:47:11;;;;;;;5.70;2.90;;;;;;;20.15;81.33;100127.09;4946025;28;20286;-55
2022/04/13 07:49:37;;;;;;;3.67;2.63;;;;;;;20.30;80.93;100128.94;4947126;28;20205;-55
2022/04/13 07:52:03;;;;;;;5.67;2.87;;;;;;;20.51;80.03;100128.72;4942027;28;20266;-57
2022/04/13 07:54:28;;;;;;;4.07;2.73;;;;;;;20.64;79.11;100132.41;4943261;28;20678;-56
2022/04/13 07:56:54;;;;;;;3.60;2.37;;;;;;;20.70;78.69;100126.81;4943436;28;20200;-58
2022/04/13 07:59:19;;;;;;;4.37;2.43;;;;;;;20.80;78.31;100135.09;4950282;28;20191;-58
2022/04/13 08:01:44;;;;;;;4.60;2.67;;;;;;;20.77;76.87;100132.63;4947494;28;20590;-56
2022/04/13 08:04:10;;;;;;;2.53;2.10;;;;;;;20.71;76.90;100133.75;4938140;28;21546;-57
2022/04/13 08:06:35;;;;;;;2.10;1.90;;;;;;;20.73;77.17;100127.56;4939660;28;20447;-56
2022/04/13 08:09:00;;;;;;;2.57;2.00;;;;;;;20.72;76.55;100139.88;4945430;28;20194;-57
2022/04/13 08:11:26;;;;;;;3.23;2.00;;;;;;;20.67;76.33;100136.66;4947730;28;20190;-57
2022/04/13 08:13:51;;;;;;;2.93;1.70;;;;;;;20.69;75.79;100135.63;4944087;28;20188;-57
2022/04/13 08:16:17;;;;;;;3.10;1.70;;;;;;;20.74;75.16;100145.88;4950441;28;20526;-57
2022/04/13 08:18:44;;;;;;;1.90;1.70;;;;;;;20.77;74.94;100142.28;4951514;28;20269;-57
2022/04/13 08:21:09;;;;;;;3.60;1.90;;;;;;;20.85;74.74;100143.59;4951723;28;20591;-56
2022/04/13 08:23:35;;;;;;;3.57;1.60;;;;;;;20.94;73.83;100144.00;4951960;28;20305;-58
2022/04/13 08:26:00;;;;;;;2.70;1.60;;;;;;;20.99;73.51;100150.69;4958033;28;20198;-56
2022/04/13 08:28:25;;;;;;;2.77;1.70;;;;;;;21.02;72.58;100149.72;4947673;28;20190;-58
2022/04/13 08:30:51;;;;;;;1.93;1.60;;;;;;;21.08;72.32;100146.72;4943394;28;20198;-55
2022/04/13 08:33:16;;;;;;;3.07;1.47;;;;;;;21.14;71.81;100150.78;4947026;28;20214;-56
2022/04/13 08:35:41;;;;;;;1.67;1.40;;;;;;;21.15;70.70;100153.34;4943356;28;20191;-56
2022/04/13 08:38:07;;;;;;;1.60;1.40;;;;;;;21.16;70.18;100147.16;4941965;28;20202;-56
2022/04/13 08:40:38;;;;;;;3.17;1.50;;;;;;;21.19;69.15;100151.38;4940531;28;20207;-57
2022/04/13 08:43:10;;;;;;;3.60;1.50;;;;;;;21.22;68.18;100150.34;4941736;28;20226;-57
2022/04/13 08:45:58;;;;;;;2.07;1.40;;;;;;;21.21;67.32;100140.78;4944597;28;21490;-59
2022/04/13 08:48:25;;;;;;;3.40;1.77;;;;;;;21.20;66.24;100141.69;4941172;28;20659;-57
2022/04/13 08:50:58;;;;;;;4.00;1.60;;;;;;;21.25;65.89;100144.94;4944792;28;20199;-57
2022/04/13 08:53:29;;;;;;;2.53;1.50;;;;;;;21.37;65.45;100135.50;4941336;28;20207;-59
2022/04/13 08:55:57;;;;;;;3.20;1.83;;;;;;;21.51;65.38;100137.34;4944060;28;20745;-56
2022/04/13 08:58:40;;;;;;;2.87;1.70;;;;;;;21.58;64.87;100142.16;4943056;28;20186;-56
2022/04/13 09:01:14;;;;;;;2.33;1.70;;;;;;;21.64;64.17;100138.34;4943570;28;20218;-56
2022/04/13 09:03:44;;;;;;;2.00;1.50;;;;;;;21.70;64.71;100138.00;4940249;28;20211;-59
2022/04/13 09:06:11;;;;;;;1.83;1.37;;;;;;;21.75;64.57;100140.38;4942088;28;20664;-56
2022/04/13 09:08:39;;;;;;;2.27;1.27;;;;;;;21.73;63.59;100142.25;4940153;28;20653;-58
2022/04/13 09:11:05;;;;;;;1.70;1.30;;;;;;;21.72;63.68;100135.28;4941188;28;20262;-56
2022/04/13 09:13:32;;;;;;;5.73;1.73;;;;;;;21.73;63.22;100143.09;4947078;28;20769;-58
2022/04/13 09:15:59;;;;;;;2.57;1.50;;;;;;;21.77;63.15;100142.00;4947810;28;20270;-58
2022/04/13 09:18:25;;;;;;;3.90;1.73;;;;;;;21.67;61.87;100135.56;4947197;28;20185;-58
2022/04/13 09:20:51;;;;;;;2.73;1.67;;;;;;;21.69;61.53;100141.56;4942830;28;20195;-57
2022/04/13 09:23:17;;;;;;;3.00;1.50;;;;;;;21.72;61.40;100136.13;4942203;28;20272;-57
2022/04/13 09:25:43;;;;;;;3.07;1.60;;;;;;;21.77;61.21;100143.78;4948777;28;20233;-57
2022/04/13 09:28:08;;;;;;;2.10;1.40;;;;;;;21.81;61.10;100141.78;4943157;28;20274;-58
2022/04/13 09:30:34;;;;;;;2.93;1.60;;;;;;;21.84;61.38;100141.63;4943071;28;20187;-58
2022/04/13 09:33:03;;;;;;;3.23;1.50;;;;;;;21.86;60.93;100137.94;4941026;28;20233;-55
2022/04/13 09:35:32;;;;;;;3.07;1.60;;;;;;;21.88;60.28;100138.72;4935229;28;20690;-57
2022/04/13 09:38:08;;;;;;;2.30;1.43;;;;;;;21.98;59.02;100139.03;4948196;28;20282;-57
2022/04/13 09:40:35;;;;;;;3.10;1.67;;;;;;;21.96;59.15;100143.53;4944012;28;20197;-59
2022/04/13 09:43:04;;;;;;;1.73;1.50;;;;;;;22.03;59.64;100144.00;4945567;28;20222;-56
2022/04/13 09:45:44;;;;;;;4.10;1.67;;;;;;;22.09;59.61;100138.38;4945879;28;20218;-57
2022/04/13 09:48:15;;;;;;;2.50;1.47;;;;;;;22.18;60.43;100148.38;4947774;28;20623;-57
2022/04/13 09:50:41;;;;;;;5.77;1.57;;;;;;;22.27;60.41;100143.50;4946007;28;20242;-57
2022/04/13 09:53:09;;;;;;;2.83;1.40;;;;;;;22.28;60.47;100138.13;4942729;28;20253;-57
2022/04/13 09:55:50;;;;;;;2.13;1.37;;;;;;;22.34;60.83;100139.53;4943993;28;20186;-58
2022/04/13 09:58:18;;;;;;;2.23;1.40;;;;;;;22.39;60.83;100143.59;4941241;28;20205;-56
2022/04/13 10:00:46;;;;;;;2.93;1.50;;;;;;;22.48;61.12;100136.09;4958763;28;20277;-57
2022/04/13 10:03:15;;;;;;;2.10;1.30;;;;;;;22.53;61.16;100134.88;4945755;28;20218;-57
2022/04/13 10:05:43;;;;;;;3.27;1.60;;;;;;;22.55;61.01;100129.50;4942180;28;20192;-56
2022/04/13 10:08:10;;;;;;;5.47;1.87;;;;;;;22.50;60.18;100135.06;4945492;28;20847;-57
2022/04/13 10:10:41;;;;;;;1.47;1.23;;;;;;;22.57;60.69;100132.88;4949514;28;20659;-57
2022/04/13 10:13:06;;;;;;;2.07;1.40;;;;;;;22.64;60.10;100131.59;4945346;28;20207;-57
2022/04/13 10:15:32;;;;;;;3.40;1.53;;;;;;;22.66;58.68;100128.84;4947610;28;20187;-57
2022/04/13 10:17:59;;;;;;;1.60;1.37;;;;;;;22.66;58.26;100120.91;4946635;28;20218;-59
2022/04/13 10:20:41;;;;;;;3.13;1.73;;;;;;;22.74;59.25;100125.72;4944298;28;20214;-56
2022/04/13 10:23:06;;;;;;;3.90;1.80;;;;;;;22.83;58.08;100120.72;4956597;28;20215;-57
2022/04/13 10:25:31;;;;;;;2.67;1.70;;;;;;;22.86;57.93;100114.38;4955007;28;20710;-57
2022/04/13 10:27:59;;;;;;;3.60;1.40;;;;;;;22.87;57.98;100115.25;4952163;28;20294;-55
2022/04/13 10:30:34;;;;;;;3.90;1.80;;;;;;;22.99;57.10;100119.75;4944665;28;20194;-57
2022/04/13 10:33:03;;;;;;;2.60;1.90;;;;;;;22.94;56.03;100119.19;4939689;28;20209;-56
2022/04/13 10:35:29;;;;;;;3.70;1.70;;;;;;;22.81;56.08;100111.22;4943943;28;20659;-59
2022/04/13 10:37:55;;;;;;;3.17;1.80;;;;;;;22.80;57.47;100112.16;4939704;28;20532;-60
2022/04/13 10:40:23;;;;;;;2.10;1.30;;;;;;;22.89;58.08;100106.28;4944342;28;20187;-59
2022/04/13 10:42:51;;;;;;;1.90;1.43;;;;;;;23.02;58.55;100106.34;4947136;28;20211;-60
2022/04/13 10:45:17;;;;;;;3.53;1.70;;;;;;;23.09;57.08;100110.28;4945331;28;20644;-61
2022/04/13 10:47:58;;;;;;;3.20;1.67;;;;;;;23.07;56.98;100112.16;4946097;28;20667;-58
2022/04/13 10:50:36;;;;;;;4.13;1.70;;;;;;;23.01;57.20;100111.72;4951490;28;20191;-58
2022/04/13 10:53:14;;;;;;;3.73;1.73;;;;;;;22.96;56.95;100115.50;4957234;28;20206;-58
2022/04/13 10:55:41;;;;;;;3.80;1.53;;;;;;;23.03;57.06;100113.34;4961584;28;20260;-57
2022/04/13 10:58:33;;;;;;;3.73;1.77;;;;;;;23.13;56.62;100103.03;4960616;28;20217;-58
2022/04/13 11:01:06;;;;;;;2.07;1.57;;;;;;;23.13;56.76;100113.59;4960922;28;20220;-57
2022/04/13 11:03:35;;;;;;;2.90;1.67;;;;;;;23.05;56.36;100102.66;4944875;28;20221;-58
2022/04/13 11:06:04;;;;;;;3.17;1.93;;;;;;;23.19;56.94;100101.78;4947577;28;20241;-56
2022/04/13 11:08:56;;;;;;;4.27;1.90;;;;;;;23.24;56.78;100103.22;4956602;28;20282;-57
2022/04/13 11:11:22;;;;;;;4.37;1.60;;;;;;;23.13;56.36;100092.47;4963878;28;20199;-57
2022/04/13 11:13:49;;;;;;;3.63;1.70;;;;;;;23.22;56.28;100093.66;4961431;28;21059;-59
2022/04/13 11:16:25;;;;;;;1.43;1.30;;;;;;;23.25;56.75;100098.75;4951172;28;20201;-56
2022/04/13 11:19:06;;;;;;;1.80;1.50;;;;;;;23.38;57.18;100098.81;4943759;28;20202;-56
2022/04/13 11:21:54;;;;;;;4.67;1.80;;;;;;;23.49;57.40;100098.09;4942169;28;20197;-57
2022/04/13 11:24:41;;;;;;;4.27;2.00;;;;;;;23.55;56.46;100097.69;4945923;28;20194;-56